Time;durP1;ratioP1;P1;durP2;ratioP2;P2;SDS_P1;SDS_P2;PMS_P1;PMS_P2;Temp;Humidity;BMP_temperature;BMP_pressure;BME280_temperature;BME280_humidity;BME280_pressure;Samples;Min_cycle;Max_cycle;Signal;HPM_P1;HPM_P2
2023/10/11 00:02:08;;;;;;;;;;;17.10;99.90;;;;;;5133574;28;19943;-48
2023/10/11 00:04:33;;;;;;;;;;;17.10;99.90;;;;;;5133588;28;19983;-47
2023/10/11 00:06:59;;;;;;;;;;;17.00;99.90;;;;;;5133498;28;20261;-47
2023/10/11 00:09:34;;;;;;;;;;;17.00;99.90;;;;;;5133412;28;19951;-46
2023/10/11 00:12:00;;;;;;;;;;;17.00;99.90;;;;;;5133555;28;19907;-46
2023/10/11 00:14:27;;;;;;;;;;;17.00;99.90;;;;;;5136189;27;20361;-48
2023/10/11 00:16:54;;;;;;;;;;;17.00;99.90;;;;;;5137322;27;19996;-47
2023/10/11 00:19:22;;;;;;;;;;;17.00;99.90;;;;;;5137277;27;19908;-48
2023/10/11 00:21:49;;;;;;;;;;;17.00;99.90;;;;;;5137116;27;20003;-48
2023/10/11 00:24:17;;;;;;;;;;;17.00;99.90;;;;;;5137108;27;19908;-46
2023/10/11 00:26:44;;;;;;;;;;;17.00;99.90;;;;;;5137056;27;20325;-46
2023/10/11 00:29:11;;;;;;;;;;;16.90;99.90;;;;;;5137103;27;20301;-51
2023/10/11 00:31:38;;;;;;;;;;;16.90;99.90;;;;;;5137067;27;19908;-45
2023/10/11 00:34:06;;;;;;;;;;;16.90;99.90;;;;;;5137019;27;19930;-46
2023/10/11 00:36:33;;;;;;;;;;;16.90;99.90;;;;;;5136652;27;20466;-48
2023/10/11 00:38:58;;;;;;;;;;;16.90;99.90;;;;;;5136850;27;20262;-50
2023/10/11 00:41:30;;;;;;;;;;;16.90;99.90;;;;;;5136819;27;19923;-48
2023/10/11 00:43:56;;;;;;;;;;;16.80;99.90;;;;;;5136760;27;19918;-47
2023/10/11 00:46:27;;;;;;;;;;;16.90;99.90;;;;;;5136785;27;19914;-49
2023/10/11 00:51:26;;;;;;;;;;;16.80;99.90;;;;;;5136592;27;19914;-46
2023/10/11 00:53:52;;;;;;;;;;;16.80;99.90;;;;;;5136898;27;19907;-48
2023/10/11 00:56:21;;;;;;;;;;;16.80;99.90;;;;;;5136517;27;20408;-48
2023/10/11 00:58:50;;;;;;;;;;;16.80;99.90;;;;;;5136494;27;19952;-49
2023/10/11 01:01:16;;;;;;;;;;;16.80;99.90;;;;;;5136456;27;20014;-47
2023/10/11 01:03:41;;;;;;;;;;;16.80;99.90;;;;;;5136391;27;19986;-46
2023/10/11 01:06:10;;;;;;;;;;;16.80;99.90;;;;;;5136519;27;19907;-49
2023/10/11 01:08:39;;;;;;;;;;;16.80;99.90;;;;;;5136360;27;19965;-47
2023/10/11 01:11:05;;;;;;;;;;;16.70;99.90;;;;;;5136328;27;20378;-46
2023/10/11 01:13:30;;;;;;;;;;;16.80;99.90;;;;;;5136244;27;19967;-47
2023/10/11 01:15:56;;;;;;;;;;;16.80;99.90;;;;;;5136108;27;19911;-50
2023/10/11 01:18:21;;;;;;;;;;;16.80;99.90;;;;;;5136106;27;19907;-45
2023/10/11 01:20:47;;;;;;;;;;;16.80;99.90;;;;;;5135971;27;20274;-49
2023/10/11 01:23:12;;;;;;;;;;;16.80;99.90;;;;;;5136006;27;19914;-48
2023/10/11 01:25:38;;;;;;;;;;;16.80;99.90;;;;;;5135843;27;19907;-46
2023/10/11 01:28:03;;;;;;;;;;;16.70;99.90;;;;;;5135939;27;20310;-47
2023/10/11 01:30:29;;;;;;;;;;;16.80;99.90;;;;;;5136010;27;19914;-45
2023/10/11 01:32:55;;;;;;;;;;;16.70;99.90;;;;;;5135855;27;20327;-46
2023/10/11 01:35:20;;;;;;;;;;;16.70;99.90;;;;;;5135707;27;20307;-47
2023/10/11 01:37:48;;;;;;;;;;;16.70;99.90;;;;;;5135818;27;19934;-44
2023/10/11 01:40:20;;;;;;;;;;;16.70;99.90;;;;;;5135769;27;19907;-46
2023/10/11 01:42:51;;;;;;;;;;;16.70;99.90;;;;;;5135591;27;20288;-47
2023/10/11 01:45:17;;;;;;;;;;;16.70;99.90;;;;;;5135627;27;19907;-47
2023/10/11 01:47:45;;;;;;;;;;;16.70;99.90;;;;;;5135504;27;19907;-48
2023/10/11 01:50:10;;;;;;;;;;;16.70;99.90;;;;;;5135489;27;20429;-46
2023/10/11 01:52:35;;;;;;;;;;;16.70;99.90;;;;;;5135510;27;19955;-46
2023/10/11 01:55:01;;;;;;;;;;;16.70;99.90;;;;;;5135379;27;20275;-46
2023/10/11 01:57:27;;;;;;;;;;;16.70;99.90;;;;;;5135491;27;19911;-47
2023/10/11 01:59:53;;;;;;;;;;;16.70;99.90;;;;;;5135260;27;19939;-49
2023/10/11 02:02:19;;;;;;;;;;;16.70;99.90;;;;;;5135291;27;19977;-46
2023/10/11 02:04:45;;;;;;;;;;;16.70;99.90;;;;;;5135226;27;19907;-46
2023/10/11 02:07:12;;;;;;;;;;;16.70;99.90;;;;;;5135271;27;19907;-48
2023/10/11 02:09:37;;;;;;;;;;;16.70;99.90;;;;;;5135160;27;19946;-46
2023/10/11 02:12:10;;;;;;;;;;;16.70;99.90;;;;;;5135076;27;19981;-47
2023/10/11 02:14:37;;;;;;;;;;;16.60;99.90;;;;;;5134973;27;19911;-45
2023/10/11 02:17:04;;;;;;;;;;;16.60;99.90;;;;;;5134976;27;20426;-46
2023/10/11 02:19:32;;;;;;;;;;;16.60;99.90;;;;;;5135038;27;19991;-46
2023/10/11 02:22:00;;;;;;;;;;;16.60;99.90;;;;;;5134777;27;19916;-46
2023/10/11 02:24:25;;;;;;;;;;;16.50;99.90;;;;;;5134932;27;19907;-46
2023/10/11 02:26:50;;;;;;;;;;;16.50;99.90;;;;;;5134782;27;20322;-47
2023/10/11 02:29:20;;;;;;;;;;;16.50;99.90;;;;;;5134750;27;20402;-50
2023/10/11 02:31:52;;;;;;;;;;;16.40;99.90;;;;;;5134712;27;19964;-49
2023/10/11 02:34:18;;;;;;;;;;;16.50;99.90;;;;;;5134749;27;20010;-47
2023/10/11 02:36:44;;;;;;;;;;;16.40;99.90;;;;;;5133720;27;19990;-47
2023/10/11 02:39:22;;;;;;;;;;;16.40;99.90;;;;;;5134651;27;19908;-47
2023/10/11 02:41:55;;;;;;;;;;;16.30;99.90;;;;;;5134385;27;20374;-46
2023/10/11 02:44:22;;;;;;;;;;;16.30;99.90;;;;;;5134612;27;20059;-56
2023/10/11 02:46:49;;;;;;;;;;;16.30;99.90;;;;;;5134447;27;19908;-46
2023/10/11 02:49:21;;;;;;;;;;;16.30;99.90;;;;;;5134448;27;19911;-51
2023/10/11 02:51:53;;;;;;;;;;;16.20;99.90;;;;;;5134299;27;20009;-45
2023/10/11 02:54:19;;;;;;;;;;;16.30;99.90;;;;;;5134323;27;20278;-45
2023/10/11 02:56:47;;;;;;;;;;;16.30;99.90;;;;;;5134250;27;19960;-45
2023/10/11 02:59:19;;;;;;;;;;;16.20;99.90;;;;;;5134338;27;20375;-44
2023/10/11 03:01:59;;;;;;;;;;;16.20;99.90;;;;;;5134014;27;20373;-47
2023/10/11 03:04:32;;;;;;;;;;;16.20;99.90;;;;;;5134177;27;19907;-44
2023/10/11 03:07:00;;;;;;;;;;;16.20;99.90;;;;;;5134284;27;20029;-50
2023/10/11 03:09:26;;;;;;;;;;;16.20;99.90;;;;;;5134073;27;20263;-44
2023/10/11 03:11:53;;;;;;;;;;;16.10;99.90;;;;;;5134019;27;20486;-48
2023/10/11 03:14:20;;;;;;;;;;;16.20;99.90;;;;;;5134060;27;19911;-48
2023/10/11 03:16:55;;;;;;;;;;;16.10;99.90;;;;;;5133893;27;20377;-46
2023/10/11 03:19:21;;;;;;;;;;;16.10;99.90;;;;;;5133968;27;19960;-48
2023/10/11 03:21:53;;;;;;;;;;;16.10;99.90;;;;;;5133742;27;19915;-44
2023/10/11 03:24:19;;;;;;;;;;;16.00;99.90;;;;;;5133924;27;20284;-49
2023/10/11 03:26:48;;;;;;;;;;;16.10;99.90;;;;;;5133754;27;20366;-46
2023/10/11 03:29:17;;;;;;;;;;;16.00;99.90;;;;;;5133920;27;19914;-45
2023/10/11 03:31:43;;;;;;;;;;;16.10;99.90;;;;;;5133730;27;19987;-49
2023/10/11 03:34:14;;;;;;;;;;;16.00;99.90;;;;;;5133869;27;20345;-47
2023/10/11 03:36:43;;;;;;;;;;;16.00;99.90;;;;;;5133553;28;19923;-45
2023/10/11 03:39:15;;;;;;;;;;;16.00;99.90;;;;;;5133816;28;19907;-47
2023/10/11 03:41:46;;;;;;;;;;;16.00;99.90;;;;;;5133607;28;19957;-46
2023/10/11 03:44:17;;;;;;;;;;;16.00;99.90;;;;;;5133735;28;19912;-49
2023/10/11 03:46:47;;;;;;;;;;;15.90;99.90;;;;;;5133596;28;20281;-46
2023/10/11 03:51:49;;;;;;;;;;;15.90;99.90;;;;;;5137825;27;20013;-47
2023/10/11 03:54:19;;;;;;;;;;;15.90;99.90;;;;;;5137778;27;20349;-46
2023/10/11 03:56:45;;;;;;;;;;;16.00;99.90;;;;;;5137688;27;19914;-46
2023/10/11 03:59:15;;;;;;;;;;;15.90;99.90;;;;;;5137802;27;19908;-49
2023/10/11 04:01:43;;;;;;;;;;;15.90;99.90;;;;;;5137519;27;20399;-46
2023/10/11 04:04:08;;;;;;;;;;;16.00;99.90;;;;;;5137689;27;19908;-48
2023/10/11 04:06:34;;;;;;;;;;;16.00;99.90;;;;;;5137538;27;20286;-49
2023/10/11 04:09:03;;;;;;;;;;;15.90;99.90;;;;;;5137463;27;19907;-47
2023/10/11 04:11:47;;;;;;;;;;;16.00;99.90;;;;;;5137520;27;20326;-47
2023/10/11 04:14:23;;;;;;;;;;;16.00;99.90;;;;;;5137548;27;19911;-46
2023/10/11 04:16:51;;;;;;;;;;;16.00;99.90;;;;;;5137421;27;19939;-46
2023/10/11 04:19:21;;;;;;;;;;;16.00;99.90;;;;;;5137366;27;20269;-44
2023/10/11 04:24:19;;;;;;;;;;;16.10;99.90;;;;;;5137322;27;19907;-47
2023/10/11 04:26:53;;;;;;;;;;;16.10;99.90;;;;;;5137118;27;19908;-46
2023/10/11 04:29:22;;;;;;;;;;;16.10;99.90;;;;;;5137280;27;19929;-45
2023/10/11 04:34:32;;;;;;;;;;;16.10;99.90;;;;;;5137329;27;19915;-49
2023/10/11 04:36:59;;;;;;;;;;;16.10;99.90;;;;;;5136668;27;20437;-46
2023/10/11 04:39:27;;;;;;;;;;;16.10;99.90;;;;;;5136911;27;20358;-47
2023/10/11 04:41:59;;;;;;;;;;;16.10;99.90;;;;;;5136769;27;20358;-46
2023/10/11 04:44:30;;;;;;;;;;;16.00;99.90;;;;;;5136838;27;19950;-47
2023/10/11 04:47:00;;;;;;;;;;;16.10;99.90;;;;;;5136796;27;20374;-47
2023/10/11 04:49:30;;;;;;;;;;;16.00;99.90;;;;;;5136874;27;19960;-46
2023/10/11 04:51:57;;;;;;;;;;;16.00;99.90;;;;;;5136663;27;19960;-47
2023/10/11 04:54:42;;;;;;;;;;;16.00;99.90;;;;;;5136626;27;19930;-49
2023/10/11 04:57:07;;;;;;;;;;;15.90;99.90;;;;;;5136637;27;19912;-48
2023/10/11 05:02:07;;;;;;;;;;;15.90;99.90;;;;;;5136422;27;19915;-46
2023/10/11 05:04:33;;;;;;;;;;;16.00;99.90;;;;;;5136446;27;20316;-45
2023/10/11 05:07:09;;;;;;;;;;;15.90;99.90;;;;;;5136373;27;19907;-47
2023/10/11 05:09:38;;;;;;;;;;;16.00;99.90;;;;;;5136331;27;19946;-47
2023/10/11 05:14:31;;;;;;;;;;;15.90;99.90;;;;;;5136542;27;19915;-46
2023/10/11 05:17:16;;;;;;;;;;;15.90;99.90;;;;;;5136181;27;19912;-48
2023/10/11 05:19:46;;;;;;;;;;;15.90;99.90;;;;;;5136238;27;19908;-48
2023/10/11 05:22:17;;;;;;;;;;;15.90;99.90;;;;;;5136051;27;19999;-48
2023/10/11 05:32:58;;;;;;;;;;;16.00;99.90;;;;;;5135907;27;19932;-49
2023/10/11 05:35:43;;;;;;;;;;;16.00;99.90;;;;;;5135639;27;20453;-49
2023/10/11 05:51:50;;;;;;;;;;;16.10;99.90;;;;;;5135914;27;20282;-46
2023/10/11 05:54:16;;;;;;;;;;;16.10;99.90;;;;;;5135612;27;20369;-46
2023/10/11 05:56:47;;;;;;;;;;;16.10;99.90;;;;;;5135349;27;19907;-48
2023/10/11 05:59:14;;;;;;;;;;;16.10;99.90;;;;;;5135442;27;20366;-46
2023/10/11 06:01:39;;;;;;;;;;;16.10;99.90;;;;;;5135183;27;19916;-47
2023/10/11 06:04:05;;;;;;;;;;;16.10;99.90;;;;;;5135360;27;19961;-47
2023/10/11 06:06:42;;;;;;;;;;;16.10;99.90;;;;;;5135379;27;20341;-50
2023/10/11 06:09:16;;;;;;;;;;;16.10;99.90;;;;;;5135539;27;19953;-49
2023/10/11 06:11:48;;;;;;;;;;;16.10;99.90;;;;;;5134444;27;19998;-51
2023/10/11 06:14:16;;;;;;;;;;;16.10;99.90;;;;;;5135059;27;19907;-47
2023/10/11 06:16:43;;;;;;;;;;;16.20;99.90;;;;;;5135008;27;20373;-47
2023/10/11 06:19:18;;;;;;;;;;;16.20;99.90;;;;;;5135024;27;19915;-45
2023/10/11 06:21:57;;;;;;;;;;;16.20;99.90;;;;;;5134887;27;19919;-50
2023/10/11 06:24:34;;;;;;;;;;;16.20;99.90;;;;;;5134919;27;19907;-46
2023/10/11 06:29:55;;;;;;;;;;;16.20;99.90;;;;;;5095796;27;19998;-47
2023/10/11 06:32:22;;;;;;;;;;;16.20;99.90;;;;;;5134779;27;19947;-48
2023/10/11 06:34:50;;;;;;;;;;;16.30;99.90;;;;;;5134617;27;19930;-48
2023/10/11 06:37:25;;;;;;;;;;;16.30;99.90;;;;;;5134405;27;19927;-45
2023/10/11 06:44:59;;;;;;;;;;;16.30;99.90;;;;;;5134504;27;19994;-49
2023/10/11 06:47:26;;;;;;;;;;;16.30;99.90;;;;;;5134441;27;19907;-48
2023/10/11 06:49:55;;;;;;;;;;;16.30;99.90;;;;;;5134405;27;19911;-48
2023/10/11 06:52:25;;;;;;;;;;;16.30;99.90;;;;;;5134592;27;20027;-46
2023/10/11 06:55:07;;;;;;;;;;;16.30;99.90;;;;;;5134321;27;19932;-46
2023/10/11 06:57:38;;;;;;;;;;;16.30;99.90;;;;;;5134630;27;19911;-46
2023/10/11 07:00:12;;;;;;;;;;;16.40;99.90;;;;;;5134251;27;19915;-47
2023/10/11 07:02:39;;;;;;;;;;;16.40;99.90;;;;;;5134131;27;19915;-50
2023/10/11 07:05:08;;;;;;;;;;;16.40;99.90;;;;;;5134249;27;19930;-46
2023/10/11 07:07:34;;;;;;;;;;;16.50;99.90;;;;;;5134193;27;19908;-48
2023/10/11 07:10:05;;;;;;;;;;;16.40;99.90;;;;;;5134083;27;19931;-48
2023/10/11 07:12:39;;;;;;;;;;;16.50;99.90;;;;;;5134008;27;19907;-45
2023/10/11 07:15:09;;;;;;;;;;;16.50;99.90;;;;;;5134197;27;19907;-47
2023/10/11 07:17:34;;;;;;;;;;;16.50;99.90;;;;;;5134031;27;19982;-51
2023/10/11 07:20:00;;;;;;;;;;;16.50;99.90;;;;;;5133939;27;20313;-46
2023/10/11 07:22:28;;;;;;;;;;;16.50;99.90;;;;;;5133761;27;19919;-46
2023/10/11 07:24:57;;;;;;;;;;;16.60;99.90;;;;;;5133710;27;20400;-46
2023/10/11 07:27:37;;;;;;;;;;;16.60;99.90;;;;;;5133968;27;19914;-46
2023/10/11 07:30:06;;;;;;;;;;;16.60;99.90;;;;;;5134019;27;19908;-48
2023/10/11 07:32:33;;;;;;;;;;;16.60;99.90;;;;;;5133818;27;19927;-46
2023/10/11 07:35:04;;;;;;;;;;;16.60;99.90;;;;;;5133680;27;19907;-46
2023/10/11 07:37:30;;;;;;;;;;;16.70;99.90;;;;;;5133491;28;19928;-49
2023/10/11 07:40:00;;;;;;;;;;;16.70;99.90;;;;;;5133757;28;20009;-49
2023/10/11 07:42:28;;;;;;;;;;;16.70;99.90;;;;;;5133638;28;20393;-46
2023/10/11 07:44:54;;;;;;;;;;;16.70;99.90;;;;;;5133646;28;19912;-46
2023/10/11 07:47:25;;;;;;;;;;;16.70;99.90;;;;;;5133699;28;19907;-46
2023/10/11 07:49:54;;;;;;;;;;;16.70;99.90;;;;;;5133548;28;19943;-49
2023/10/11 07:52:20;;;;;;;;;;;16.80;99.90;;;;;;5133636;28;19907;-49
2023/10/11 07:54:45;;;;;;;;;;;16.80;99.90;;;;;;5133517;28;19907;-49
2023/10/11 07:57:14;;;;;;;;;;;16.80;99.90;;;;;;5133626;28;19912;-47
2023/10/11 07:59:40;;;;;;;;;;;16.80;99.90;;;;;;5133538;28;20307;-49
2023/10/11 08:02:26;;;;;;;;;;;16.80;99.90;;;;;;5133428;28;19975;-45
2023/10/11 08:04:57;;;;;;;;;;;16.80;99.90;;;;;;5133632;28;19915;-49
2023/10/11 08:07:22;;;;;;;;;;;16.90;99.90;;;;;;5133556;28;19907;-46
2023/10/11 08:09:52;;;;;;;;;;;16.90;99.90;;;;;;5133385;28;19915;-50
2023/10/11 08:12:23;;;;;;;;;;;16.90;99.90;;;;;;5133570;28;19919;-50
2023/10/11 08:14:53;;;;;;;;;;;16.90;99.90;;;;;;5133281;28;19914;-48
2023/10/11 08:17:21;;;;;;;;;;;16.90;99.90;;;;;;5133385;28;19907;-45
2023/10/11 08:19:48;;;;;;;;;;;16.90;99.90;;;;;;5133402;28;19911;-48
2023/10/11 08:22:14;;;;;;;;;;;16.90;99.90;;;;;;5133335;28;19923;-48
2023/10/11 08:24:47;;;;;;;;;;;16.90;99.90;;;;;;5133178;28;19908;-49
2023/10/11 08:27:13;;;;;;;;;;;17.00;99.90;;;;;;5133348;28;19907;-49
2023/10/11 08:29:42;;;;;;;;;;;17.00;99.90;;;;;;5133282;28;20278;-46
2023/10/11 08:32:12;;;;;;;;;;;16.90;99.90;;;;;;5133364;28;20117;-47
2023/10/11 08:34:38;;;;;;;;;;;16.90;99.90;;;;;;5134557;27;19959;-47
2023/10/11 08:37:07;;;;;;;;;;;16.90;99.90;;;;;;5136763;27;19919;-47
2023/10/11 08:39:41;;;;;;;;;;;16.90;99.90;;;;;;5137054;27;19914;-47
2023/10/11 08:42:11;;;;;;;;;;;16.90;99.90;;;;;;5136803;27;19968;-46
2023/10/11 08:44:37;;;;;;;;;;;16.90;99.90;;;;;;5136838;27;20111;-45
2023/10/11 08:47:05;;;;;;;;;;;16.90;99.90;;;;;;5136828;27;19915;-45
2023/10/11 08:49:33;;;;;;;;;;;16.90;99.90;;;;;;5136902;27;19938;-46
2023/10/11 08:52:02;;;;;;;;;;;16.90;99.90;;;;;;5136707;27;19914;-49
2023/10/11 08:54:28;;;;;;;;;;;16.90;99.90;;;;;;5136637;27;19908;-48
2023/10/11 08:56:54;;;;;;;;;;;16.90;99.90;;;;;;5136548;27;20382;-47
2023/10/11 08:59:27;;;;;;;;;;;16.90;99.90;;;;;;5136671;27;19968;-49
2023/10/11 09:01:53;;;;;;;;;;;16.90;99.90;;;;;;5136491;27;19923;-49
2023/10/11 09:04:20;;;;;;;;;;;16.90;99.90;;;;;;5136693;27;19908;-47
2023/10/11 09:06:46;;;;;;;;;;;16.90;99.90;;;;;;5136467;27;19970;-48
2023/10/11 09:09:34;;;;;;;;;;;16.90;99.90;;;;;;5136578;27;20372;-47
2023/10/11 09:11:59;;;;;;;;;;;16.90;99.90;;;;;;5136365;27;20365;-49
2023/10/11 09:14:27;;;;;;;;;;;16.90;99.90;;;;;;5136416;27;19908;-48
2023/10/11 09:16:57;;;;;;;;;;;16.80;99.90;;;;;;5136228;27;19967;-45
2023/10/11 09:19:26;;;;;;;;;;;16.90;99.90;;;;;;5136233;27;19908;-47
2023/10/11 09:22:04;;;;;;;;;;;16.90;99.90;;;;;;5136062;27;19954;-45
2023/10/11 09:24:41;;;;;;;;;;;16.90;99.90;;;;;;5136463;27;20006;-45
2023/10/11 09:29:46;;;;;;;;;;;17.00;99.90;;;;;;5136111;27;20354;-45
2023/10/11 09:32:13;;;;;;;;;;;17.00;99.90;;;;;;5135971;27;19919;-45
2023/10/11 09:34:41;;;;;;;;;;;17.10;99.90;;;;;;5135903;27;19907;-49
2023/10/11 09:37:13;;;;;;;;;;;17.20;99.90;;;;;;5135629;27;19927;-48
2023/10/11 09:39:39;;;;;;;;;;;17.20;99.90;;;;;;5135819;27;19995;-49
2023/10/11 09:42:07;;;;;;;;;;;17.20;99.90;;;;;;5135737;27;19915;-47
2023/10/11 09:44:37;;;;;;;;;;;17.20;99.90;;;;;;5135697;27;19908;-47
2023/10/11 09:47:07;;;;;;;;;;;17.30;99.90;;;;;;5135597;27;19907;-46
2023/10/11 09:49:41;;;;;;;;;;;17.30;99.90;;;;;;5135735;27;19908;-45
2023/10/11 09:52:08;;;;;;;;;;;17.40;99.90;;;;;;5135615;27;20002;-46
2023/10/11 09:54:37;;;;;;;;;;;17.30;99.90;;;;;;5135629;27;20003;-45
2023/10/11 09:57:13;;;;;;;;;;;17.40;99.90;;;;;;5135354;27;19907;-51
2023/10/11 10:00:00;;;;;;;;;;;17.40;99.90;;;;;;5135493;27;19907;-51
2023/10/11 10:02:36;;;;;;;;;;;17.40;99.90;;;;;;5135300;27;20289;-47
2023/10/11 10:05:04;;;;;;;;;;;17.40;99.90;;;;;;5135373;27;20362;-44
2023/10/11 10:10:08;;;;;;;;;;;17.40;99.90;;;;;;5135344;27;19907;-44
2023/10/11 10:12:45;;;;;;;;;;;17.40;99.90;;;;;;5135267;27;20002;-46
2023/10/11 10:15:15;;;;;;;;;;;17.40;99.90;;;;;;5135270;27;20037;-50
2023/10/11 10:18:03;;;;;;;;;;;17.40;99.90;;;;;;5135101;27;19994;-45
2023/10/11 10:20:28;;;;;;;;;;;17.50;99.90;;;;;;5135318;27;19945;-46
2023/10/11 10:23:12;;;;;;;;;;;17.60;99.90;;;;;;5135175;27;19946;-47
2023/10/11 10:25:38;;;;;;;;;;;17.70;99.90;;;;;;5134934;27;19912;-45
2023/10/11 10:28:03;;;;;;;;;;;17.90;99.90;;;;;;5134801;27;19907;-47
2023/10/11 10:30:49;;;;;;;;;;;18.00;99.90;;;;;;5134822;27;19908;-47
2023/10/11 10:33:23;;;;;;;;;;;18.10;99.90;;;;;;5134673;27;19959;-47
2023/10/11 10:35:49;;;;;;;;;;;18.20;99.90;;;;;;5134512;27;19972;-47
2023/10/11 10:38:14;;;;;;;;;;;18.30;99.90;;;;;;5134669;27;19912;-51
2023/10/11 10:40:45;;;;;;;;;;;18.40;99.90;;;;;;5134535;27;19915;-50
2023/10/11 10:43:21;;;;;;;;;;;18.40;99.90;;;;;;5134709;27;19915;-45
2023/10/11 10:45:48;;;;;;;;;;;18.40;99.90;;;;;;5134584;27;19970;-46
2023/10/11 10:48:18;;;;;;;;;;;18.60;99.90;;;;;;5133788;27;20408;-46
2023/10/11 10:50:47;;;;;;;;;;;18.70;99.90;;;;;;5134353;27;19908;-46
2023/10/11 10:53:14;;;;;;;;;;;18.70;99.90;;;;;;5134377;27;19914;-46
2023/10/11 10:55:44;;;;;;;;;;;18.60;99.90;;;;;;5134274;27;19937;-48
2023/10/11 10:58:19;;;;;;;;;;;18.50;99.90;;;;;;5133979;27;19908;-48
2023/10/11 11:00:47;;;;;;;;;;;18.50;99.90;;;;;;5134146;27;19907;-45
2023/10/11 11:03:19;;;;;;;;;;;18.50;99.90;;;;;;5134334;27;19976;-49
2023/10/11 11:05:57;;;;;;;;;;;18.50;99.90;;;;;;5134124;27;19958;-50
2023/10/11 11:08:31;;;;;;;;;;;18.50;99.90;;;;;;5134216;27;19908;-45
2023/10/11 11:11:00;;;;;;;;;;;18.60;99.90;;;;;;5134102;27;20462;-46
2023/10/11 11:13:28;;;;;;;;;;;18.70;99.90;;;;;;5134120;27;19960;-47
2023/10/11 11:15:56;;;;;;;;;;;18.80;99.90;;;;;;5133967;27;19918;-46
2023/10/11 11:18:30;;;;;;;;;;;18.80;99.90;;;;;;5134009;27;19995;-46
2023/10/11 11:20:59;;;;;;;;;;;18.80;99.90;;;;;;5133805;27;19922;-45
2023/10/11 11:23:27;;;;;;;;;;;18.90;99.90;;;;;;5134042;27;19914;-50
2023/10/11 11:25:53;;;;;;;;;;;18.90;99.90;;;;;;5133809;27;19914;-50
2023/10/11 11:28:20;;;;;;;;;;;19.00;99.90;;;;;;5133840;27;20377;-47
2023/10/11 11:30:52;;;;;;;;;;;19.10;99.90;;;;;;5133806;27;19949;-44
2023/10/11 11:33:36;;;;;;;;;;;19.20;99.90;;;;;;5133844;27;19951;-49
2023/10/11 11:36:10;;;;;;;;;;;19.20;99.90;;;;;;5133523;27;19927;-46
2023/10/11 11:38:37;;;;;;;;;;;19.20;99.90;;;;;;5133788;27;19916;-45
2023/10/11 11:41:05;;;;;;;;;;;19.20;99.90;;;;;;5133453;28;20377;-46
2023/10/11 11:43:34;;;;;;;;;;;19.20;99.90;;;;;;5133692;28;19907;-49
2023/10/11 11:46:01;;;;;;;;;;;19.20;99.90;;;;;;5133620;28;20326;-45
2023/10/11 11:48:27;;;;;;;;;;;19.30;99.90;;;;;;5133744;28;19936;-46
2023/10/11 11:50:56;;;;;;;;;;;19.40;99.90;;;;;;5133596;28;20367;-46
2023/10/11 11:53:22;;;;;;;;;;;19.40;99.90;;;;;;5133669;28;20375;-45
2023/10/11 11:55:47;;;;;;;;;;;19.50;99.90;;;;;;5133532;28;19917;-45
2023/10/11 11:58:16;;;;;;;;;;;19.60;99.90;;;;;;5133707;28;19913;-45
2023/10/11 12:00:45;;;;;;;;;;;19.70;99.90;;;;;;5133465;28;19911;-47
2023/10/11 12:03:11;;;;;;;;;;;19.70;99.90;;;;;;5133597;28;19915;-45
2023/10/11 12:05:40;;;;;;;;;;;19.80;99.90;;;;;;5133522;28;19912;-46
2023/10/11 12:08:08;;;;;;;;;;;19.90;99.90;;;;;;5133784;27;19907;-46
2023/10/11 12:10:33;;;;;;;;;;;19.90;99.90;;;;;;5136485;27;19914;-49
2023/10/11 12:13:06;;;;;;;;;;;20.00;99.90;;;;;;5137498;27;19911;-46
2023/10/11 12:15:35;;;;;;;;;;;19.90;99.90;;;;;;5137610;27;19958;-48
2023/10/11 12:18:05;;;;;;;;;;;19.90;99.90;;;;;;5137396;27;20385;-45
2023/10/11 12:20:34;;;;;;;;;;;19.80;99.90;;;;;;5137404;27;19914;-44
2023/10/11 12:23:07;;;;;;;;;;;19.80;99.90;;;;;;5137254;27;20278;-45
2023/10/11 12:25:36;;;;;;;;;;;19.80;99.90;;;;;;5137425;27;19907;-44
2023/10/11 12:28:04;;;;;;;;;;;19.80;99.90;;;;;;5137226;27;19950;-47
2023/10/11 12:30:33;;;;;;;;;;;19.80;99.90;;;;;;5137314;27;19970;-47
2023/10/11 12:32:59;;;;;;;;;;;19.90;99.90;;;;;;5137102;27;19908;-47
2023/10/11 12:35:28;;;;;;;;;;;20.00;99.90;;;;;;5136801;27;19907;-45
2023/10/11 12:38:00;;;;;;;;;;;20.10;99.90;;;;;;5137167;27;19911;-45
2023/10/11 12:40:28;;;;;;;;;;;20.10;99.90;;;;;;5137181;27;19908;-46
2023/10/11 12:42:55;;;;;;;;;;;20.10;99.90;;;;;;5136872;27;19947;-46
2023/10/11 12:45:21;;;;;;;;;;;20.10;99.90;;;;;;5136991;27;19907;-45
2023/10/11 12:47:46;;;;;;;;;;;20.20;99.90;;;;;;5136792;27;19911;-47
2023/10/11 12:50:17;;;;;;;;;;;20.20;99.90;;;;;;5136837;27;19914;-47
2023/10/11 12:52:45;;;;;;;;;;;20.20;99.90;;;;;;5136873;27;20258;-46
2023/10/11 12:55:12;;;;;;;;;;;20.30;99.90;;;;;;5136792;27;19936;-47
2023/10/11 12:57:41;;;;;;;;;;;20.20;99.90;;;;;;5136710;27;19953;-48
2023/10/11 13:02:51;;;;;;;;;;;20.30;99.90;;;;;;5136579;27;19969;-45
2023/10/11 13:05:17;;;;;;;;;;;20.20;99.90;;;;;;5136639;27;19915;-45
2023/10/11 13:07:43;;;;;;;;;;;20.10;99.90;;;;;;5136463;27;19922;-47
2023/10/11 13:10:08;;;;;;;;;;;20.10;99.90;;;;;;5133436;27;19907;-46
2023/10/11 13:12:37;;;;;;;;;;;20.00;99.90;;;;;;5129307;27;19912;-45
2023/10/11 13:15:08;;;;;;;;;;;20.00;99.90;;;;;;5117481;27;19912;-46
2023/10/11 13:17:33;;;;;;;;;;;20.10;99.90;;;;;;5117426;27;19908;-46
2023/10/11 13:20:08;;;;;;;;;;;20.10;99.90;;;;;;5114297;27;20025;-44
2023/10/11 13:22:34;;;;;;;;;;;20.20;99.90;;;;;;5118646;27;20317;-45
2023/10/11 13:25:00;;;;;;;;;;;20.20;99.90;;;;;;5123482;27;19926;-49
2023/10/11 13:27:26;;;;;;;;;;;20.30;99.90;;;;;;5132297;27;19918;-44
2023/10/11 13:29:51;;;;;;;;;;;20.30;99.90;;;;;;5127136;27;19919;-46
2023/10/11 13:32:17;;;;;;;;;;;20.30;99.90;;;;;;5125947;27;20333;-48
2023/10/11 13:34:42;;;;;;;;;;;20.40;99.90;;;;;;5120679;27;19918;-45
2023/10/11 13:37:08;;;;;;;;;;;20.40;99.90;;;;;;5121935;27;20445;-45
2023/10/11 13:39:45;;;;;;;;;;;20.30;99.90;;;;;;5120853;27;20274;-46
2023/10/11 13:42:14;;;;;;;;;;;20.30;99.90;;;;;;5120397;27;19924;-48
2023/10/11 13:44:43;;;;;;;;;;;20.30;99.90;;;;;;5119379;27;19918;-45
2023/10/11 13:47:09;;;;;;;;;;;20.30;99.90;;;;;;5115015;28;20431;-45
2023/10/11 13:49:37;;;;;;;;;;;20.20;99.90;;;;;;5117159;27;19915;-48
2023/10/11 13:52:04;;;;;;;;;;;20.20;99.90;;;;;;5115038;28;19999;-46
2023/10/11 13:54:42;;;;;;;;;;;20.10;99.90;;;;;;5114780;27;19911;-45
2023/10/11 13:57:10;;;;;;;;;;;20.00;99.90;;;;;;5115205;28;19912;-49
2023/10/11 13:59:37;;;;;;;;;;;20.10;99.90;;;;;;5128407;27;19911;-46
2023/10/11 14:02:32;;;;;;;;;;;20.00;99.90;;;;;;5135357;27;19923;-47
2023/10/11 14:04:51;;;;;;;;;;;20.00;99.90;;;;;;5135191;27;19960;-44
2023/10/11 14:07:26;;;;;;;;;;;20.00;99.90;;;;;;5135562;27;20381;-47
2023/10/11 14:09:54;;;;;;;;;;;20.00;99.90;;;;;;5117786;27;19908;-47
2023/10/11 14:12:29;;;;;;;;;;;20.00;99.90;;;;;;5114775;28;19964;-45
2023/10/11 14:14:55;;;;;;;;;;;20.00;99.90;;;;;;5114708;28;19980;-48
2023/10/11 14:17:24;;;;;;;;;;;20.00;99.90;;;;;;5114647;28;19908;-48
2023/10/11 14:19:51;;;;;;;;;;;20.00;99.90;;;;;;5128997;27;20319;-46
2023/10/11 14:22:17;;;;;;;;;;;20.20;99.90;;;;;;5134984;27;19926;-43
2023/10/11 14:24:42;;;;;;;;;;;20.40;99.90;;;;;;5121412;27;20282;-45
2023/10/11 14:27:08;;;;;;;;;;;20.70;99.90;;;;;;5114535;28;20251;-44
2023/10/11 14:29:34;;;;;;;;;;;21.10;99.90;;;;;;5114406;28;19912;-47
2023/10/11 14:31:59;;;;;;;;;;;21.50;99.90;;;;;;5113395;28;20358;-45
2023/10/11 14:34:25;;;;;;;;;;;21.90;99.90;;;;;;5127351;27;19907;-45
2023/10/11 14:36:50;;;;;;;;;;;22.00;99.90;;;;;;5124008;27;19919;-48
2023/10/11 14:39:19;;;;;;;;;;;21.90;99.90;;;;;;5116832;27;19967;-47
2023/10/11 14:41:50;;;;;;;;;;;21.40;99.90;;;;;;5127361;27;20440;-49
2023/10/11 14:44:16;;;;;;;;;;;21.30;99.90;;;;;;5114183;28;19965;-46
2023/10/11 14:46:41;;;;;;;;;;;21.10;99.90;;;;;;5113872;28;19947;-45
2023/10/11 14:49:07;;;;;;;;;;;21.00;99.90;;;;;;5114095;28;20110;-47
2023/10/11 14:51:37;;;;;;;;;;;20.80;99.90;;;;;;5114066;28;19994;-46
2023/10/11 14:54:03;;;;;;;;;;;20.80;99.90;;;;;;5114489;27;20252;-46
2023/10/11 14:56:30;;;;;;;;;;;20.70;99.90;;;;;;5113944;28;19912;-50
2023/10/11 14:58:56;;;;;;;;;;;20.60;99.90;;;;;;5113774;28;19908;-48
2023/10/11 15:01:25;;;;;;;;;;;20.50;99.90;;;;;;5113675;28;19919;-46
2023/10/11 15:03:50;;;;;;;;;;;20.40;99.90;;;;;;5127412;27;20366;-49
2023/10/11 15:06:19;;;;;;;;;;;20.30;99.90;;;;;;5134331;27;19914;-49
2023/10/11 15:08:45;;;;;;;;;;;20.20;99.90;;;;;;5119663;27;19919;-44
2023/10/11 15:11:11;;;;;;;;;;;20.20;99.90;;;;;;5113701;28;19907;-47
2023/10/11 15:13:37;;;;;;;;;;;20.10;99.90;;;;;;5125053;27;19911;-48
2023/10/11 15:16:03;;;;;;;;;;;20.00;99.90;;;;;;5131902;27;20289;-46
2023/10/11 15:18:32;;;;;;;;;;;20.00;99.90;;;;;;5134127;27;19914;-46
2023/10/11 15:20:59;;;;;;;;;;;20.00;99.90;;;;;;5133975;27;19918;-47